createdAt,value
2023-01-20T00:01:49.426Z,1.00
2023-01-20T00:04:19.890Z,1.00
2023-01-20T00:06:50.388Z,1.00
2023-01-20T00:09:19.919Z,1.00
2023-01-20T00:11:48.740Z,1.00
2023-01-20T00:14:17.921Z,0.90
2023-01-20T00:16:46.814Z,0.90
2023-01-20T00:19:16.537Z,0.80
2023-01-20T00:21:49.980Z,0.70
2023-01-20T00:24:20.201Z,0.70
2023-01-20T00:26:48.865Z,0.60
2023-01-20T00:29:19.711Z,0.60
2023-01-20T00:31:48.477Z,0.70
2023-01-20T00:34:17.347Z,0.70
2023-01-20T00:36:46.203Z,0.80
2023-01-20T00:39:15.072Z,0.70
2023-01-20T00:41:45.190Z,0.60
2023-01-20T00:44:14.034Z,0.60
2023-01-20T00:46:42.969Z,0.50
2023-01-20T00:49:11.784Z,0.40
2023-01-20T00:51:40.531Z,0.50
2023-01-20T00:54:09.267Z,0.60
2023-01-20T00:56:38.081Z,0.70
2023-01-20T00:59:09.562Z,0.70
2023-01-20T01:01:38.659Z,0.70
2023-01-20T01:04:07.420Z,0.80
2023-01-20T01:06:36.090Z,0.80
2023-01-20T01:09:04.992Z,0.80
2023-01-20T01:11:33.804Z,0.80
2023-01-20T01:14:02.520Z,0.80
2023-01-20T01:16:32.915Z,0.80
2023-01-20T01:19:01.648Z,0.80
2023-01-20T01:21:30.692Z,0.80
2023-01-20T01:23:59.559Z,0.80
2023-01-20T01:26:28.414Z,0.80
2023-01-20T01:28:57.205Z,0.80
2023-01-20T01:31:26.124Z,0.90
2023-01-20T01:33:56.245Z,0.90
2023-01-20T01:36:27.202Z,1.00
2023-01-20T01:38:57.399Z,0.90
2023-01-20T01:41:34.250Z,1.00
2023-01-20T01:44:06.466Z,1.00
2023-01-20T01:46:35.652Z,0.90
2023-01-20T01:49:11.659Z,1.00
2023-01-20T01:51:45.196Z,1.00
2023-01-20T01:54:16.745Z,1.00
2023-01-20T01:56:47.611Z,1.00
2023-01-20T01:59:17.787Z,1.00
2023-01-20T02:01:52.942Z,0.90
2023-01-20T02:04:25.381Z,0.90
2023-01-20T02:06:57.682Z,0.90
2023-01-20T02:09:28.498Z,0.90
2023-01-20T02:12:04.564Z,0.90
2023-01-20T02:14:36.093Z,1.00
2023-01-20T02:17:13.755Z,1.00
2023-01-20T02:20:34.668Z,1.00
2023-01-20T02:23:11.549Z,1.00
2023-01-20T02:25:54.948Z,1.00
2023-01-20T02:28:38.548Z,0.90
2023-01-20T02:31:38.278Z,0.90
2023-01-20T02:34:16.571Z,0.90
2023-01-20T02:36:49.384Z,0.90
2023-01-20T02:39:27.249Z,0.90
2023-01-20T02:42:02.990Z,0.90
2023-01-20T02:44:38.502Z,0.90
2023-01-20T02:47:12.981Z,0.90
2023-01-20T02:49:49.994Z,0.90
2023-01-20T02:52:23.103Z,0.90
2023-01-20T02:54:55.408Z,0.90
2023-01-20T02:57:29.001Z,1.00
2023-01-20T03:00:07.670Z,1.00
2023-01-20T03:02:41.489Z,1.00
2023-01-20T03:05:15.767Z,1.00
2023-01-20T03:07:47.025Z,1.10
2023-01-20T03:10:20.217Z,1.10
2023-01-20T03:12:51.871Z,1.10
2023-01-20T03:15:24.763Z,1.10
2023-01-20T03:17:54.660Z,1.10
2023-01-20T03:20:25.311Z,1.10
2023-01-20T03:22:54.337Z,1.10
2023-01-20T03:25:24.697Z,1.10
2023-01-20T03:27:53.470Z,1.10
2023-01-20T03:30:25.076Z,1.10
2023-01-20T03:32:55.182Z,1.10
2023-01-20T03:35:25.665Z,1.20
2023-01-20T03:37:54.530Z,1.10
2023-01-20T03:40:26.473Z,1.10
2023-01-20T03:43:02.533Z,1.20
2023-01-20T03:45:37.926Z,1.10
2023-01-20T03:48:14.382Z,1.10
2023-01-20T03:50:48.806Z,1.10
2023-01-20T03:53:29.197Z,1.10
2023-01-20T03:56:03.602Z,1.10
2023-01-20T03:58:34.492Z,1.20
2023-01-20T04:01:18.439Z,1.20
2023-01-20T04:03:51.250Z,1.20
2023-01-20T04:06:25.416Z,1.20
2023-01-20T04:08:57.799Z,1.10
2023-01-20T04:11:27.300Z,1.20
2023-01-20T04:13:56.544Z,1.20
2023-01-20T04:16:26.910Z,1.20
2023-01-20T04:18:56.008Z,1.20
2023-01-20T04:21:32.647Z,1.20
2023-01-20T04:24:09.398Z,1.10
2023-01-20T04:26:38.351Z,1.10
2023-01-20T04:29:12.011Z,1.20
2023-01-20T04:31:41.880Z,1.20
2023-01-20T04:34:13.994Z,1.20
2023-01-20T04:36:44.373Z,1.20
2023-01-20T04:39:14.660Z,1.20
2023-01-20T04:41:43.497Z,1.10
2023-01-20T04:44:12.210Z,1.20
2023-01-20T04:46:41.130Z,1.10
2023-01-20T04:49:11.114Z,1.10
2023-01-20T04:51:39.949Z,1.10
2023-01-20T04:54:10.054Z,1.10
2023-01-20T04:56:38.755Z,1.10
2023-01-20T04:59:07.748Z,1.10
2023-01-20T05:01:36.713Z,1.10
2023-01-20T05:04:05.524Z,1.20
2023-01-20T05:06:35.449Z,1.20
2023-01-20T05:09:04.159Z,1.20
2023-01-20T05:11:34.362Z,1.10
2023-01-20T05:14:03.071Z,1.10
2023-01-20T05:16:32.148Z,1.10
2023-01-20T05:19:00.999Z,1.10
2023-01-20T05:21:29.828Z,1.00
2023-01-20T05:23:58.926Z,1.00
2023-01-20T05:26:28.094Z,1.00
2023-01-20T05:28:58.350Z,1.10
2023-01-20T05:31:29.992Z,1.00
2023-01-20T05:33:59.242Z,1.00
2023-01-20T05:36:28.460Z,1.10
2023-01-20T05:39:00.151Z,1.10
2023-01-20T05:41:28.940Z,1.10
2023-01-20T05:43:59.443Z,1.10
2023-01-20T05:46:30.163Z,1.00
2023-01-20T05:48:58.842Z,1.10
2023-01-20T05:51:28.110Z,1.10
2023-01-20T05:53:57.529Z,1.10
2023-01-20T05:56:26.469Z,1.00
2023-01-20T05:58:56.214Z,1.10
2023-01-20T06:01:33.254Z,1.00
2023-01-20T06:04:07.170Z,1.00
2023-01-20T06:06:36.025Z,1.00
2023-01-20T06:09:07.773Z,1.00
2023-01-20T06:11:36.674Z,1.00
2023-01-20T06:14:05.576Z,1.10
2023-01-20T06:16:35.799Z,1.00
2023-01-20T06:19:04.655Z,1.00
2023-01-20T06:21:33.544Z,1.10
2023-01-20T06:24:02.263Z,1.10
2023-01-20T06:26:40.172Z,1.00
2023-01-20T06:29:08.865Z,1.00
2023-01-20T06:31:39.023Z,1.00
2023-01-20T06:34:07.818Z,1.00
2023-01-20T06:36:36.792Z,1.00
2023-01-20T06:39:05.532Z,1.00
2023-01-20T06:41:34.365Z,1.00
2023-01-20T06:44:03.175Z,1.00
2023-01-20T06:46:32.271Z,1.00
2023-01-20T06:49:02.315Z,1.00
2023-01-20T06:51:33.509Z,1.00
2023-01-20T06:54:02.181Z,1.00
2023-01-20T06:56:30.926Z,1.00
2023-01-20T06:58:59.741Z,1.00
2023-01-20T07:01:30.508Z,1.00
2023-01-20T07:03:59.456Z,1.00
2023-01-20T07:06:31.867Z,0.90
2023-01-20T07:09:03.813Z,0.90
2023-01-20T07:11:32.592Z,1.00
2023-01-20T07:14:01.267Z,1.00
2023-01-20T07:16:30.314Z,1.00
2023-01-20T07:18:59.480Z,1.10
2023-01-20T07:21:32.673Z,1.10
2023-01-20T07:24:02.577Z,1.10
2023-01-20T07:26:31.395Z,1.10
2023-01-20T07:29:00.582Z,1.10
2023-01-20T07:31:31.461Z,1.10
2023-01-20T07:34:00.583Z,1.10
2023-01-20T07:36:31.011Z,1.10
2023-01-20T07:38:59.780Z,1.10
2023-01-20T07:41:28.740Z,1.20
2023-01-20T07:43:57.891Z,1.20
2023-01-20T07:46:27.091Z,1.20
2023-01-20T07:48:57.590Z,1.20
2023-01-20T07:51:26.261Z,1.20
2023-01-20T07:53:56.456Z,1.30
2023-01-20T07:56:27.614Z,1.30
2023-01-20T07:58:59.781Z,1.30
2023-01-20T08:01:30.174Z,1.30
2023-01-20T08:04:02.892Z,1.30
2023-01-20T08:06:33.061Z,1.40
2023-01-20T08:09:04.093Z,1.40
2023-01-20T08:11:33.405Z,1.50
2023-01-20T08:14:03.750Z,1.50
2023-01-20T08:16:35.579Z,1.50
2023-01-20T08:19:07.321Z,1.50
2023-01-20T08:21:36.315Z,1.50
2023-01-20T08:24:07.504Z,1.60
2023-01-20T08:26:36.446Z,1.60
2023-01-20T08:29:10.153Z,1.60
2023-01-20T08:31:39.310Z,1.70
2023-01-20T08:34:08.292Z,1.70
2023-01-20T08:36:40.512Z,1.70
2023-01-20T08:39:18.565Z,1.70
2023-01-20T08:41:48.839Z,1.70
2023-01-20T08:44:18.598Z,1.80
2023-01-20T08:46:47.468Z,1.80
2023-01-20T08:49:18.063Z,1.80
2023-01-20T08:51:46.801Z,1.80
2023-01-20T08:54:17.321Z,1.80
2023-01-20T08:56:46.103Z,1.80
2023-01-20T08:59:14.820Z,1.80
2023-01-20T09:01:43.914Z,1.70
2023-01-20T09:04:12.895Z,1.80
2023-01-20T09:06:44.266Z,1.80
2023-01-20T09:09:13.592Z,1.80
2023-01-20T09:11:44.989Z,1.80
2023-01-20T09:14:13.770Z,1.80
2023-01-20T09:16:42.326Z,1.80
2023-01-20T09:19:10.988Z,1.80
2023-01-20T09:21:39.713Z,1.80
2023-01-20T09:24:08.817Z,1.80
2023-01-20T09:26:39.618Z,1.80
2023-01-20T09:29:12.490Z,1.80
2023-01-20T09:31:44.707Z,1.90
2023-01-20T09:34:19.056Z,1.90
2023-01-20T09:36:51.923Z,1.90
2023-01-20T09:39:38.815Z,1.90
2023-01-20T09:42:43.616Z,1.90
2023-01-20T09:45:25.191Z,1.90
2023-01-20T09:48:01.512Z,1.90
2023-01-20T09:51:00.227Z,1.90
2023-01-20T09:53:42.996Z,1.90
2023-01-20T09:56:16.846Z,1.90
2023-01-20T09:58:51.730Z,1.80
2023-01-20T10:01:30.634Z,1.90
2023-01-20T10:04:06.479Z,1.90
2023-01-20T10:06:40.793Z,1.90
2023-01-20T10:09:17.943Z,2.00
2023-01-20T10:11:49.282Z,2.00
2023-01-20T10:14:23.238Z,2.00
2023-01-20T10:16:59.323Z,2.10
2023-01-20T10:19:35.431Z,2.10
2023-01-20T10:22:11.230Z,2.20
2023-01-20T10:24:44.752Z,2.20
2023-01-20T10:27:13.636Z,2.30
2023-01-20T10:29:48.784Z,2.30
2023-01-20T10:32:26.027Z,2.40
2023-01-20T10:34:58.361Z,2.40
2023-01-20T10:37:31.192Z,2.40
2023-01-20T10:40:07.426Z,2.40
2023-01-20T10:42:36.107Z,2.40
2023-01-20T10:45:05.216Z,2.40
2023-01-20T10:47:45.243Z,2.40
2023-01-20T10:50:39.665Z,2.40
2023-01-20T10:53:47.186Z,2.50
2023-01-20T10:56:36.687Z,2.50
2023-01-20T10:59:13.843Z,2.50
2023-01-20T11:01:44.245Z,2.50
2023-01-20T11:04:20.666Z,2.50
2023-01-20T11:06:55.110Z,2.50
2023-01-20T11:09:31.981Z,2.60
2023-01-20T11:12:03.171Z,2.60
2023-01-20T11:14:32.773Z,2.60
2023-01-20T11:17:06.466Z,2.60
2023-01-20T11:19:53.125Z,2.60
2023-01-20T11:22:29.967Z,2.70
2023-01-20T11:24:59.989Z,2.70
2023-01-20T11:27:30.799Z,2.70
2023-01-20T11:30:02.564Z,2.70
2023-01-20T11:32:34.753Z,2.70
2023-01-20T11:35:21.685Z,2.70
2023-01-20T11:37:50.364Z,2.70
2023-01-20T11:40:23.156Z,2.80
2023-01-20T11:42:53.387Z,2.70
2023-01-20T11:45:28.865Z,2.70
2023-01-20T11:48:06.582Z,2.70
2023-01-20T11:50:40.623Z,2.70
2023-01-20T11:53:20.587Z,2.70
2023-01-20T11:55:56.219Z,2.70
2023-01-20T11:58:27.429Z,2.70
2023-01-20T12:01:02.850Z,2.60
2023-01-20T12:04:08.677Z,2.60
2023-01-20T12:06:46.735Z,2.60
2023-01-20T12:09:19.297Z,2.60
2023-01-20T12:11:54.635Z,2.60
2023-01-20T12:14:28.583Z,2.60
2023-01-20T12:17:14.446Z,2.60
2023-01-20T12:19:57.040Z,2.60
2023-01-20T12:22:36.202Z,2.70
2023-01-20T12:25:14.719Z,2.80
2023-01-20T12:27:48.437Z,3.00
2023-01-20T12:30:28.863Z,3.00
2023-01-20T12:32:57.638Z,3.00
2023-01-20T12:35:30.184Z,3.10
2023-01-20T12:38:08.016Z,3.10
2023-01-20T12:40:44.915Z,3.00
2023-01-20T12:43:35.800Z,3.00
2023-01-20T12:46:23.926Z,3.00
2023-01-20T12:49:22.433Z,3.00
2023-01-20T12:52:04.537Z,3.00
2023-01-20T12:54:57.314Z,3.00
2023-01-20T12:57:39.463Z,3.00
2023-01-20T13:00:24.841Z,3.00
2023-01-20T13:03:25.900Z,3.00
2023-01-20T13:06:29.582Z,3.00
2023-01-20T13:09:08.644Z,2.90
2023-01-20T13:11:52.977Z,2.90
2023-01-20T13:14:26.071Z,2.90
2023-01-20T13:17:03.163Z,2.90
2023-01-20T13:19:35.435Z,2.90
2023-01-20T13:22:11.563Z,2.90
2023-01-20T13:24:42.233Z,2.80
2023-01-20T13:27:13.954Z,2.80
2023-01-20T13:29:44.837Z,2.80
2023-01-20T13:32:32.040Z,2.80
2023-01-20T13:35:01.811Z,2.80
2023-01-20T13:37:36.664Z,2.80
2023-01-20T13:40:33.065Z,2.80
2023-01-20T13:43:03.727Z,2.80
2023-01-20T13:45:32.484Z,2.80
2023-01-20T13:48:03.944Z,2.80
2023-01-20T13:50:34.466Z,2.80
2023-01-20T13:53:13.656Z,2.80
2023-01-20T13:55:54.042Z,2.80
2023-01-20T13:58:26.224Z,2.80
2023-01-20T14:00:56.835Z,2.80
2023-01-20T14:03:30.861Z,2.80
2023-01-20T14:06:01.387Z,2.80
2023-01-20T14:08:31.545Z,2.80
2023-01-20T14:11:13.612Z,2.80
2023-01-20T14:13:52.036Z,2.80
2023-01-20T14:16:23.963Z,2.80
2023-01-20T14:18:56.411Z,2.70
2023-01-20T14:21:27.142Z,2.80
2023-01-20T14:23:56.204Z,2.80
2023-01-20T14:26:27.027Z,2.80
2023-01-20T14:28:58.732Z,2.80
2023-01-20T14:31:40.605Z,2.80
2023-01-20T14:34:24.843Z,2.80
2023-01-20T14:36:54.055Z,2.80
2023-01-20T14:39:24.818Z,2.80
2023-01-20T14:41:56.032Z,2.80
2023-01-20T14:44:28.216Z,2.80
2023-01-20T14:46:59.087Z,2.80
2023-01-20T14:49:33.293Z,2.80
2023-01-20T14:52:03.095Z,2.80
2023-01-20T14:54:40.258Z,2.80
2023-01-20T14:57:35.928Z,2.80
2023-01-20T15:00:22.803Z,2.70
2023-01-20T15:03:09.585Z,2.70
2023-01-20T15:05:42.293Z,2.80
2023-01-20T15:08:25.984Z,2.80
2023-01-20T15:11:21.925Z,2.80
2023-01-20T15:14:11.289Z,2.80
2023-01-20T15:16:47.522Z,2.80
2023-01-20T15:19:33.016Z,2.80
2023-01-20T15:22:22.245Z,2.80
2023-01-20T15:24:51.533Z,2.80
2023-01-20T15:27:27.915Z,2.80
2023-01-20T15:30:16.354Z,2.80
2023-01-20T15:32:47.529Z,2.70
2023-01-20T15:35:20.128Z,2.70
2023-01-20T15:37:48.807Z,2.70
2023-01-20T15:40:19.706Z,2.70
2023-01-20T15:42:49.696Z,2.70
2023-01-20T15:45:19.433Z,2.70
2023-01-20T15:47:49.958Z,2.70
2023-01-20T15:50:21.175Z,2.70
2023-01-20T15:52:50.014Z,2.70
2023-01-20T15:55:20.138Z,2.70
2023-01-20T15:57:52.737Z,2.70
2023-01-20T16:00:23.687Z,2.70
2023-01-20T16:02:53.902Z,2.70
2023-01-20T16:05:22.644Z,2.70
2023-01-20T16:07:51.272Z,2.60
2023-01-20T16:10:20.721Z,2.60
2023-01-20T16:12:49.616Z,2.60
2023-01-20T16:15:19.392Z,2.60
2023-01-20T16:17:48.091Z,2.60
2023-01-20T16:20:21.376Z,2.60
2023-01-20T16:22:50.328Z,2.60
2023-01-20T16:25:19.287Z,2.60
2023-01-20T16:27:47.959Z,2.50
2023-01-20T16:30:18.378Z,2.40
2023-01-20T16:32:47.349Z,2.30
2023-01-20T16:35:16.797Z,2.20
2023-01-20T16:37:48.646Z,2.10
2023-01-20T16:40:20.109Z,2.00
2023-01-20T16:42:49.350Z,1.90
2023-01-20T16:45:27.456Z,1.80
2023-01-20T16:47:57.036Z,1.70
2023-01-20T16:50:28.404Z,1.60
2023-01-20T16:52:58.672Z,1.50
2023-01-20T16:55:30.137Z,1.40
2023-01-20T16:57:58.878Z,1.30
2023-01-20T17:00:27.657Z,1.30
2023-01-20T17:02:56.498Z,1.20
2023-01-20T17:05:25.934Z,1.10
2023-01-20T17:07:57.318Z,1.10
2023-01-20T17:10:32.281Z,1.00
2023-01-20T17:13:01.549Z,1.00
2023-01-20T17:15:30.273Z,1.00
2023-01-20T17:18:00.374Z,0.90
2023-01-20T17:20:31.105Z,0.80
2023-01-20T17:22:59.765Z,0.80
2023-01-20T17:25:30.156Z,0.80
2023-01-20T17:27:58.827Z,0.80
2023-01-20T17:30:27.652Z,0.80
2023-01-20T17:32:56.610Z,0.70
2023-01-20T17:35:25.897Z,0.70
2023-01-20T17:37:54.592Z,0.70
2023-01-20T17:40:23.200Z,0.70
2023-01-20T17:42:55.610Z,0.70
2023-01-20T17:45:24.585Z,0.70
2023-01-20T17:47:53.790Z,0.60
2023-01-20T17:50:22.577Z,0.60
2023-01-20T17:52:52.417Z,0.50
2023-01-20T17:55:21.186Z,0.50
2023-01-20T17:57:51.537Z,0.50
2023-01-20T18:00:22.375Z,0.50
2023-01-20T18:02:51.302Z,0.40
2023-01-20T18:05:20.074Z,0.50
2023-01-20T18:07:50.171Z,0.40
2023-01-20T18:10:19.058Z,0.40
2023-01-20T18:12:47.697Z,0.50
2023-01-20T18:15:16.656Z,0.50
2023-01-20T18:17:46.806Z,0.50
2023-01-20T18:20:17.987Z,0.50
2023-01-20T18:22:50.440Z,0.50
2023-01-20T18:25:19.577Z,0.60
2023-01-20T18:27:48.561Z,0.60
2023-01-20T18:30:19.366Z,0.50
2023-01-20T18:32:49.586Z,0.50
2023-01-20T18:35:21.108Z,0.50
2023-01-20T18:37:50.068Z,0.50
2023-01-20T18:40:19.285Z,0.50
2023-01-20T18:42:48.794Z,0.50
2023-01-20T18:45:17.951Z,0.40
2023-01-20T18:47:49.326Z,0.50
2023-01-20T18:50:18.621Z,0.40
2023-01-20T18:52:47.514Z,0.40
2023-01-20T18:55:16.571Z,0.30
2023-01-20T18:57:47.339Z,0.30
2023-01-20T19:00:16.949Z,0.30
2023-01-20T19:02:45.857Z,0.30
2023-01-20T19:05:16.379Z,0.20
2023-01-20T19:07:49.894Z,0.20
2023-01-20T19:10:19.454Z,0.20
2023-01-20T19:12:50.921Z,0.10
2023-01-20T19:15:20.077Z,0.10
2023-01-20T19:17:51.744Z,0.10
2023-01-20T19:20:21.997Z,0.00
2023-01-20T19:22:50.680Z,0.00
2023-01-20T19:25:19.641Z,0.00
2023-01-20T19:27:48.530Z,0.00
2023-01-20T19:30:18.471Z,0.00
2023-01-20T19:32:47.498Z,-0.10
2023-01-20T19:35:16.546Z,-0.10
2023-01-20T19:37:46.852Z,-0.10
2023-01-20T19:40:16.531Z,-0.10
2023-01-20T19:42:48.885Z,-0.10
2023-01-20T19:45:28.884Z,-0.10
2023-01-20T19:48:02.584Z,-0.10
2023-01-20T19:50:31.574Z,-0.10
2023-01-20T19:53:01.796Z,-0.10
2023-01-20T19:55:30.769Z,-0.10
2023-01-20T19:58:01.751Z,0.00
2023-01-20T20:00:33.068Z,0.00
2023-01-20T20:03:04.646Z,0.10
2023-01-20T20:05:38.431Z,0.00
2023-01-20T20:08:10.491Z,-0.10
2023-01-20T20:10:43.035Z,-0.10
2023-01-20T20:13:11.956Z,-0.10
2023-01-20T20:15:41.115Z,0.00
2023-01-20T20:18:10.771Z,-0.10
2023-01-20T20:20:39.708Z,-0.10
2023-01-20T20:23:10.746Z,-0.10
2023-01-20T20:25:39.791Z,-0.10
2023-01-20T20:28:08.676Z,-0.20
2023-01-20T20:30:37.545Z,-0.10
2023-01-20T20:33:06.543Z,-0.20
2023-01-20T20:35:36.931Z,-0.30
2023-01-20T20:38:05.803Z,-0.30
2023-01-20T20:40:36.443Z,-0.40
2023-01-20T20:43:07.542Z,-0.30
2023-01-20T20:45:36.356Z,-0.40
2023-01-20T20:48:05.768Z,-0.40
2023-01-20T20:50:35.567Z,-0.40
2023-01-20T20:53:06.567Z,-0.50
2023-01-20T20:55:41.226Z,-0.60
2023-01-20T20:58:10.760Z,-0.60
2023-01-20T21:00:39.976Z,-0.60
2023-01-20T21:03:08.883Z,-0.60
2023-01-20T21:05:37.790Z,-0.70
2023-01-20T21:08:07.074Z,-0.60
2023-01-20T21:10:37.238Z,-0.70
2023-01-20T21:13:08.295Z,-0.70
2023-01-20T21:15:38.007Z,-0.80
2023-01-20T21:18:09.715Z,-0.80
2023-01-20T21:20:38.720Z,-0.80
2023-01-20T21:23:09.246Z,-0.90
2023-01-20T21:25:39.595Z,-0.90
2023-01-20T21:28:08.564Z,-0.90
2023-01-20T21:30:37.877Z,-0.90
2023-01-20T21:33:07.445Z,-0.90
2023-01-20T21:35:38.505Z,-0.80
2023-01-20T21:38:07.557Z,-0.70
2023-01-20T21:40:44.729Z,-0.70
2023-01-20T21:43:31.021Z,-0.70
2023-01-20T21:46:03.129Z,-0.60
2023-01-20T21:48:49.613Z,-0.60
2023-01-20T21:51:36.165Z,-0.50
2023-01-20T21:54:05.280Z,-0.50
2023-01-20T21:56:37.797Z,-0.50
2023-01-20T21:59:07.871Z,-0.50
2023-01-20T22:01:37.626Z,-0.50
2023-01-20T22:04:07.011Z,-0.50
2023-01-20T22:06:36.088Z,-0.50
2023-01-20T22:09:05.293Z,-0.50
2023-01-20T22:11:35.721Z,-0.50
2023-01-20T22:14:05.016Z,-0.50
2023-01-20T22:16:34.138Z,-0.50
2023-01-20T22:19:05.122Z,-0.50
2023-01-20T22:21:34.564Z,-0.50
2023-01-20T22:24:04.112Z,-0.50
2023-01-20T22:26:35.934Z,-0.60
2023-01-20T22:29:05.343Z,-0.60
2023-01-20T22:31:34.592Z,-0.60
2023-01-20T22:34:06.487Z,-0.60
2023-01-20T22:36:35.974Z,-0.70
2023-01-20T22:39:05.848Z,-0.70
2023-01-20T22:41:36.228Z,-0.70
2023-01-20T22:44:05.332Z,-0.70
2023-01-20T22:46:40.346Z,-0.70
2023-01-20T22:49:11.657Z,-0.80
2023-01-20T22:51:40.604Z,-0.80
2023-01-20T22:54:11.971Z,-0.90
2023-01-20T22:56:42.421Z,-0.90
2023-01-20T22:59:13.701Z,-0.90
2023-01-20T23:01:42.632Z,-0.90
2023-01-20T23:04:12.068Z,-0.90
2023-01-20T23:06:40.998Z,-0.90
2023-01-20T23:09:14.539Z,-0.90
2023-01-20T23:11:45.022Z,-0.90
2023-01-20T23:14:14.122Z,-0.90
2023-01-20T23:16:44.207Z,-0.90
2023-01-20T23:19:14.658Z,-1.00
2023-01-20T23:21:43.793Z,-1.00
2023-01-20T23:24:12.935Z,-1.00
2023-01-20T23:26:42.156Z,-1.00
2023-01-20T23:29:15.260Z,-1.00
2023-01-20T23:31:44.333Z,-1.00
2023-01-20T23:34:13.649Z,-1.10
2023-01-20T23:36:42.550Z,-1.10
2023-01-20T23:39:11.527Z,-1.10
2023-01-20T23:41:40.323Z,-1.20
2023-01-20T23:44:10.414Z,-1.20
2023-01-20T23:46:41.182Z,-1.20
2023-01-20T23:49:10.052Z,-1.20
2023-01-20T23:51:40.986Z,-1.20
2023-01-20T23:54:13.502Z,-1.20
2023-01-20T23:56:42.328Z,-1.20
2023-01-20T23:59:11.534Z,-1.20
